createdAt,value
2022-11-26T00:00:01.077Z,4.82
2022-11-26T00:02:32.008Z,4.70
2022-11-26T00:05:00.024Z,4.90
2022-11-26T00:07:29.155Z,4.60
2022-11-26T00:09:56.987Z,5.15
2022-11-26T00:12:29.320Z,4.60
2022-11-26T00:14:56.486Z,4.22
2022-11-26T00:17:23.714Z,5.00
2022-11-26T00:19:50.922Z,4.57
2022-11-26T00:22:26.122Z,4.93
2022-11-26T00:24:54.197Z,4.35
2022-11-26T00:27:21.458Z,3.97
2022-11-26T00:29:48.599Z,4.78
2022-11-26T00:32:17.101Z,4.80
2022-11-26T00:34:44.437Z,5.07
2022-11-26T00:37:22.250Z,3.95
2022-11-26T00:39:49.826Z,4.25
2022-11-26T00:42:17.362Z,4.03
2022-11-26T00:44:44.740Z,3.97
2022-11-26T00:47:11.881Z,3.63
2022-11-26T00:49:39.037Z,4.05
2022-11-26T00:52:13.671Z,4.10
2022-11-26T00:54:40.871Z,3.80
2022-11-26T00:57:10.624Z,4.15
2022-11-26T00:59:38.055Z,4.07
2022-11-26T01:02:05.216Z,3.95
2022-11-26T01:04:32.455Z,3.75
2022-11-26T01:06:59.805Z,4.00
2022-11-26T01:09:26.991Z,4.28
2022-11-26T01:11:54.662Z,3.85
2022-11-26T01:14:23.308Z,4.40
2022-11-26T01:16:51.247Z,3.88
2022-11-26T01:19:18.415Z,3.90
2022-11-26T01:21:45.606Z,3.90
2022-11-26T01:24:12.814Z,3.65
2022-11-26T01:26:41.391Z,3.85
2022-11-26T01:29:11.283Z,3.60
2022-11-26T01:31:38.469Z,3.53
2022-11-26T01:34:05.626Z,3.45
2022-11-26T01:36:34.202Z,3.95
2022-11-26T01:39:03.347Z,3.78
2022-11-26T01:41:30.448Z,3.80
2022-11-26T01:43:58.496Z,3.58
2022-11-26T01:46:26.474Z,3.83
2022-11-26T01:48:55.181Z,3.70
2022-11-26T01:51:27.166Z,3.28
2022-11-26T01:54:01.505Z,3.30
2022-11-26T01:56:28.631Z,3.20
2022-11-26T01:58:59.099Z,3.40
2022-11-26T02:01:26.453Z,4.18
2022-11-26T02:03:56.787Z,3.53
2022-11-26T02:06:26.424Z,3.60
2022-11-26T02:08:54.065Z,3.15
2022-11-26T02:11:22.878Z,3.15
2022-11-26T02:13:52.282Z,3.13
2022-11-26T02:16:27.975Z,2.90
2022-11-26T02:19:15.367Z,2.65
2022-11-26T02:21:46.585Z,3.40
2022-11-26T02:24:16.473Z,3.13
2022-11-26T02:26:49.610Z,3.08
2022-11-26T02:29:16.765Z,3.00
2022-11-26T02:31:50.993Z,3.38
2022-11-26T02:34:18.169Z,2.70
2022-11-26T02:36:58.186Z,2.88
2022-11-26T02:39:27.091Z,2.88
2022-11-26T02:41:56.036Z,3.00
2022-11-26T02:44:24.939Z,3.15
2022-11-26T02:47:01.801Z,2.80
2022-11-26T02:49:31.441Z,3.05
2022-11-26T02:52:00.699Z,3.67
2022-11-26T02:54:28.837Z,2.80
2022-11-26T02:56:56.795Z,3.03
2022-11-26T02:59:23.976Z,2.83
2022-11-26T03:01:54.686Z,3.08
2022-11-26T03:04:24.748Z,2.80
2022-11-26T03:06:53.240Z,3.45
2022-11-26T03:09:22.442Z,2.67
2022-11-26T03:11:49.967Z,2.90
2022-11-26T03:14:17.115Z,2.50
2022-11-26T03:16:44.424Z,2.85
2022-11-26T03:19:11.582Z,2.50
2022-11-26T03:21:38.708Z,3.80
2022-11-26T03:24:06.013Z,2.67
2022-11-26T03:26:33.150Z,3.00
2022-11-26T03:29:00.487Z,2.80
2022-11-26T03:31:27.750Z,2.97
2022-11-26T03:33:54.927Z,3.08
2022-11-26T03:36:22.095Z,2.92
2022-11-26T03:38:49.255Z,3.55
2022-11-26T03:41:16.608Z,3.78
2022-11-26T03:43:43.729Z,3.28
2022-11-26T03:46:10.949Z,3.53
2022-11-26T03:48:38.246Z,2.90
2022-11-26T03:51:05.422Z,3.55
2022-11-26T03:53:32.632Z,3.33
2022-11-26T03:55:59.846Z,3.10
2022-11-26T03:58:27.182Z,3.15
2022-11-26T04:00:54.342Z,3.50
2022-11-26T04:03:21.679Z,3.58
2022-11-26T04:05:48.859Z,3.17
2022-11-26T04:08:16.030Z,3.20
2022-11-26T04:10:43.196Z,2.72
2022-11-26T04:13:10.375Z,3.13
2022-11-26T04:15:37.506Z,3.47
2022-11-26T04:18:04.670Z,3.53
2022-11-26T04:20:31.825Z,3.35
2022-11-26T04:22:58.932Z,3.97
2022-11-26T04:25:26.319Z,3.08
2022-11-26T04:27:53.484Z,3.25
2022-11-26T04:30:20.702Z,3.30
2022-11-26T04:32:47.838Z,3.28
2022-11-26T04:35:15.203Z,3.40
2022-11-26T04:37:42.368Z,3.47
2022-11-26T04:40:09.807Z,3.58
2022-11-26T04:42:36.983Z,3.95
2022-11-26T04:45:04.492Z,3.67
2022-11-26T04:47:31.648Z,3.30
2022-11-26T04:49:58.810Z,3.78
2022-11-26T04:52:25.918Z,3.88
2022-11-26T04:54:53.062Z,3.47
2022-11-26T04:57:20.627Z,3.30
2022-11-26T04:59:47.801Z,3.58
2022-11-26T05:02:14.964Z,3.40
2022-11-26T05:04:42.131Z,3.47
2022-11-26T05:07:09.303Z,3.70
2022-11-26T05:09:36.618Z,3.22
2022-11-26T05:12:03.845Z,3.33
2022-11-26T05:14:30.967Z,3.50
2022-11-26T05:16:58.141Z,3.83
2022-11-26T05:19:25.345Z,4.63
2022-11-26T05:21:52.530Z,3.53
2022-11-26T05:24:19.681Z,3.15
2022-11-26T05:26:46.869Z,3.90
2022-11-26T05:29:13.979Z,4.10
2022-11-26T05:31:41.173Z,3.60
2022-11-26T05:34:08.414Z,3.67
2022-11-26T05:36:35.534Z,4.32
2022-11-26T05:39:02.667Z,3.15
2022-11-26T05:41:29.810Z,3.50
2022-11-26T05:43:56.962Z,3.65
2022-11-26T05:46:24.262Z,3.40
2022-11-26T05:48:51.381Z,3.17
2022-11-26T05:51:18.551Z,3.55
2022-11-26T05:53:45.699Z,3.55
2022-11-26T05:56:12.978Z,3.85
2022-11-26T05:58:40.098Z,3.80
2022-11-26T06:01:08.198Z,3.72
2022-11-26T06:03:35.784Z,3.60
2022-11-26T06:06:03.428Z,4.20
2022-11-26T06:08:30.809Z,4.25
2022-11-26T06:10:57.959Z,4.50
2022-11-26T06:13:25.125Z,4.50
2022-11-26T06:15:52.307Z,3.97
2022-11-26T06:18:19.486Z,4.07
2022-11-26T06:20:46.653Z,4.40
2022-11-26T06:23:13.776Z,3.97
2022-11-26T06:25:41.790Z,4.55
2022-11-26T06:28:09.015Z,4.35
2022-11-26T06:30:36.151Z,4.78
2022-11-26T06:33:03.343Z,4.13
2022-11-26T06:35:30.514Z,4.05
2022-11-26T06:37:57.634Z,3.90
2022-11-26T06:40:24.841Z,4.20
2022-11-26T06:42:52.599Z,4.38
2022-11-26T06:45:20.649Z,3.45
2022-11-26T06:47:48.374Z,4.00
2022-11-26T06:50:16.415Z,5.28
2022-11-26T06:52:43.594Z,4.20
2022-11-26T06:55:10.708Z,3.47
2022-11-26T06:57:37.951Z,3.78
2022-11-26T07:00:06.798Z,4.38
2022-11-26T07:02:34.002Z,4.25
2022-11-26T07:05:01.175Z,3.40
2022-11-26T07:07:28.375Z,4.00
2022-11-26T07:09:55.563Z,3.75
2022-11-26T07:12:22.727Z,3.92
2022-11-26T07:14:49.849Z,3.13
2022-11-26T07:17:16.998Z,3.85
2022-11-26T07:19:44.152Z,3.70
2022-11-26T07:22:11.317Z,4.20
2022-11-26T07:24:38.559Z,3.08
2022-11-26T07:27:05.773Z,3.50
2022-11-26T07:29:32.899Z,3.33
2022-11-26T07:32:00.095Z,3.45
2022-11-26T07:34:27.328Z,2.85
2022-11-26T07:36:57.978Z,2.67
2022-11-26T07:39:25.553Z,2.75
2022-11-26T07:41:52.687Z,2.70
2022-11-26T07:44:19.884Z,2.90
2022-11-26T07:46:47.021Z,2.65
2022-11-26T07:49:14.119Z,2.75
2022-11-26T07:51:41.263Z,2.60
2022-11-26T07:54:08.923Z,2.50
2022-11-26T07:56:36.394Z,2.15
2022-11-26T07:59:06.676Z,2.50
2022-11-26T08:01:33.897Z,2.10
2022-11-26T08:04:01.534Z,2.33
2022-11-26T08:06:29.815Z,2.20
2022-11-26T08:08:57.446Z,2.20
2022-11-26T08:11:25.722Z,1.80
2022-11-26T08:13:57.023Z,1.85
2022-11-26T08:16:24.162Z,1.70
2022-11-26T08:19:12.584Z,1.67
2022-11-26T08:21:40.001Z,1.73
2022-11-26T08:24:07.619Z,2.92
2022-11-26T08:26:39.858Z,1.45
2022-11-26T08:29:10.983Z,1.73
2022-11-26T08:31:45.107Z,1.58
2022-11-26T08:36:41.590Z,2.13
2022-11-26T08:39:09.746Z,1.40
2022-11-26T08:41:36.866Z,1.45
2022-11-26T08:44:06.931Z,1.48
2022-11-26T08:46:35.782Z,1.60
2022-11-26T08:49:02.996Z,1.63
2022-11-26T08:51:30.219Z,1.63
2022-11-26T08:53:57.372Z,1.80
2022-11-26T08:56:24.986Z,2.05
2022-11-26T08:58:52.161Z,1.73
2022-11-26T09:01:21.404Z,1.90
2022-11-26T09:03:49.345Z,1.42
2022-11-26T09:06:17.044Z,1.90
2022-11-26T09:09:02.930Z,1.80
2022-11-26T09:11:30.074Z,2.00
2022-11-26T09:13:58.285Z,2.03
2022-11-26T09:16:25.787Z,2.20
2022-11-26T09:18:53.243Z,2.55
2022-11-26T09:21:20.835Z,2.20
2022-11-26T09:23:47.982Z,2.28
2022-11-26T09:26:15.122Z,2.22
2022-11-26T09:28:42.285Z,1.88
2022-11-26T09:31:09.437Z,1.80
2022-11-26T09:33:36.549Z,2.30
2022-11-26T09:36:04.577Z,2.45
2022-11-26T09:38:31.721Z,2.17
2022-11-26T09:41:14.580Z,2.17
2022-11-26T09:44:00.606Z,2.55
2022-11-26T09:46:50.944Z,2.60
2022-11-26T09:49:25.262Z,2.53
2022-11-26T09:51:53.870Z,2.45
2022-11-26T09:54:22.555Z,3.22
2022-11-26T09:56:53.437Z,2.88
2022-11-26T09:59:21.385Z,2.65
2022-11-26T10:01:48.789Z,2.72
2022-11-26T10:04:23.246Z,2.95
2022-11-26T10:07:10.617Z,2.42
2022-11-26T10:10:00.502Z,3.03
2022-11-26T10:12:38.232Z,2.47
2022-11-26T10:15:33.078Z,3.00
2022-11-26T10:18:18.751Z,3.65
2022-11-26T10:20:58.630Z,3.42
2022-11-26T10:23:25.744Z,3.20
2022-11-26T10:26:01.970Z,3.28
2022-11-26T10:28:31.510Z,2.90
2022-11-26T10:31:00.204Z,3.33
2022-11-26T10:33:30.043Z,3.30
2022-11-26T10:35:57.151Z,3.05
2022-11-26T10:38:24.479Z,3.10
2022-11-26T10:40:51.604Z,2.80
2022-11-26T10:43:19.982Z,2.50
2022-11-26T10:45:53.828Z,2.67
2022-11-26T10:48:26.324Z,3.30
2022-11-26T10:51:12.020Z,3.22
2022-11-26T10:53:56.432Z,2.70
2022-11-26T10:56:27.565Z,2.65
2022-11-26T10:59:03.112Z,3.22
2022-11-26T11:01:37.329Z,3.50
2022-11-26T11:04:09.924Z,3.05
2022-11-26T11:06:45.248Z,4.10
2022-11-26T11:09:44.675Z,4.25
2022-11-26T11:12:11.778Z,4.07
2022-11-26T11:14:45.676Z,4.15
2022-11-26T11:17:22.004Z,4.70
2022-11-26T11:19:49.220Z,4.90
2022-11-26T11:22:23.031Z,5.30
2022-11-26T11:24:50.216Z,5.38
2022-11-26T11:27:28.312Z,5.97
2022-11-26T11:30:00.720Z,5.40
2022-11-26T11:32:41.259Z,5.28
2022-11-26T11:35:20.337Z,5.88
2022-11-26T11:37:51.567Z,6.20
2022-11-26T11:40:25.128Z,6.63
2022-11-26T11:42:54.656Z,6.20
2022-11-26T11:45:27.867Z,6.30
2022-11-26T11:47:57.679Z,6.05
2022-11-26T11:50:24.925Z,6.78
2022-11-26T11:53:10.944Z,6.10
2022-11-26T11:55:44.241Z,5.53
2022-11-26T11:58:20.421Z,6.30
2022-11-26T12:00:50.279Z,5.75
2022-11-26T12:03:23.267Z,4.93
2022-11-26T12:05:59.397Z,4.80
2022-11-26T12:08:45.214Z,5.10
2022-11-26T12:11:21.680Z,4.57
2022-11-26T12:14:04.650Z,5.00
2022-11-26T12:16:34.333Z,5.65
2022-11-26T12:19:03.551Z,4.82
2022-11-26T12:21:38.397Z,5.65
2022-11-26T12:24:05.561Z,5.60
2022-11-26T12:27:05.284Z,5.10
2022-11-26T12:29:43.541Z,4.70
2022-11-26T12:32:36.860Z,5.25
2022-11-26T12:35:11.382Z,4.70
2022-11-26T12:37:41.071Z,4.88
2022-11-26T12:40:27.674Z,4.43
2022-11-26T12:42:54.758Z,4.68
2022-11-26T12:45:30.797Z,4.78
2022-11-26T12:48:03.624Z,5.05
2022-11-26T12:50:39.892Z,5.38
2022-11-26T12:53:07.008Z,4.85
2022-11-26T12:55:50.050Z,5.10
2022-11-26T12:58:23.298Z,4.72
2022-11-26T13:00:54.106Z,4.78
2022-11-26T13:03:26.422Z,5.03
2022-11-26T13:06:12.319Z,3.97
2022-11-26T13:08:48.607Z,4.03
2022-11-26T13:11:15.756Z,4.78
2022-11-26T13:13:42.895Z,4.30
2022-11-26T13:16:29.024Z,4.45
2022-11-26T13:18:57.702Z,4.18
2022-11-26T13:21:25.828Z,3.75
2022-11-26T13:23:59.132Z,4.50
2022-11-26T13:26:28.998Z,3.88
2022-11-26T13:29:15.875Z,4.15
2022-11-26T13:32:15.236Z,4.95
2022-11-26T13:35:00.928Z,4.30
2022-11-26T13:37:40.256Z,4.50
2022-11-26T13:40:23.264Z,4.07
2022-11-26T13:42:53.425Z,5.20
2022-11-26T13:45:20.590Z,4.47
2022-11-26T13:47:51.189Z,4.38
2022-11-26T13:50:23.057Z,4.53
2022-11-26T13:53:03.008Z,4.07
2022-11-26T13:55:36.993Z,5.00
2022-11-26T13:58:06.712Z,4.20
2022-11-26T14:00:35.061Z,4.70
2022-11-26T14:03:02.824Z,4.75
2022-11-26T14:05:52.695Z,3.40
2022-11-26T14:08:35.241Z,3.50
2022-11-26T14:11:02.425Z,3.40
2022-11-26T14:13:29.590Z,3.72
2022-11-26T14:15:58.438Z,3.83
2022-11-26T14:18:44.124Z,3.50
2022-11-26T14:21:11.275Z,3.60
2022-11-26T14:23:41.247Z,3.85
2022-11-26T14:26:13.290Z,3.70
2022-11-26T14:28:40.528Z,4.05
2022-11-26T14:31:17.003Z,3.45
2022-11-26T14:33:46.536Z,4.10
2022-11-26T14:36:24.217Z,7.85
2022-11-26T14:39:09.802Z,6.07
2022-11-26T14:41:43.093Z,5.53
2022-11-26T14:44:16.337Z,5.55
2022-11-26T14:46:45.221Z,4.68
2022-11-26T14:49:15.361Z,4.60
2022-11-26T14:51:45.801Z,4.15
2022-11-26T14:54:16.666Z,5.05
2022-11-26T14:56:46.453Z,5.43
2022-11-26T14:59:15.438Z,6.88
2022-11-26T15:01:44.220Z,5.60
2022-11-26T15:04:22.417Z,5.90
2022-11-26T15:06:49.567Z,6.05
2022-11-26T15:09:18.056Z,6.35
2022-11-26T15:11:54.510Z,5.85
2022-11-26T15:14:24.208Z,4.70
2022-11-26T15:16:59.516Z,4.18
2022-11-26T15:19:27.038Z,4.43
2022-11-26T15:21:54.425Z,4.25
2022-11-26T15:24:21.715Z,4.68
2022-11-26T15:26:48.928Z,5.07
2022-11-26T15:29:31.259Z,6.20
2022-11-26T15:31:58.635Z,7.50
2022-11-26T15:34:26.325Z,6.55
2022-11-26T15:36:53.494Z,6.45
2022-11-26T15:39:30.802Z,6.28
2022-11-26T15:42:00.741Z,6.18
2022-11-26T15:44:28.688Z,6.30
2022-11-26T15:46:56.824Z,10.70
2022-11-26T15:49:29.687Z,9.50
2022-11-26T15:52:23.236Z,10.50
2022-11-26T15:55:12.086Z,11.98
2022-11-26T15:57:40.907Z,10.90
2022-11-26T16:00:19.057Z,9.50
2022-11-26T16:02:46.860Z,9.02
2022-11-26T16:05:43.331Z,7.65
2022-11-26T16:08:22.620Z,6.97
2022-11-26T16:10:56.775Z,7.93
2022-11-26T16:13:27.491Z,7.17
2022-11-26T16:16:14.212Z,10.07
2022-11-26T16:18:47.332Z,8.65
2022-11-26T16:21:18.784Z,8.93
2022-11-26T16:23:52.348Z,10.55
2022-11-26T16:26:19.831Z,8.68
2022-11-26T16:28:47.879Z,8.52
2022-11-26T16:31:16.047Z,9.27
2022-11-26T16:33:43.643Z,9.63
2022-11-26T16:36:31.078Z,9.60
2022-11-26T16:38:58.198Z,9.63
2022-11-26T16:41:25.363Z,10.32
2022-11-26T16:43:52.590Z,9.13
2022-11-26T16:46:21.286Z,9.25
2022-11-26T16:48:48.638Z,9.70
2022-11-26T16:51:16.168Z,10.65
2022-11-26T16:53:43.579Z,10.63
2022-11-26T16:58:49.668Z,10.45
2022-11-26T17:01:17.152Z,10.38
2022-11-26T17:03:44.532Z,11.40
2022-11-26T17:06:13.459Z,12.40
2022-11-26T17:08:45.059Z,12.77
2022-11-26T17:11:15.154Z,13.52
2022-11-26T17:13:42.298Z,12.93
2022-11-26T17:16:19.664Z,12.82
2022-11-26T17:18:47.561Z,14.65
2022-11-26T17:21:14.883Z,13.02
2022-11-26T17:23:42.123Z,15.95
2022-11-26T17:26:24.011Z,14.57
2022-11-26T17:28:51.516Z,12.82
2022-11-26T17:31:19.049Z,12.05
2022-11-26T17:33:46.248Z,12.93
2022-11-26T17:36:18.112Z,13.25
2022-11-26T17:38:45.736Z,14.77
2022-11-26T17:41:13.943Z,13.23
2022-11-26T17:43:41.121Z,13.43
2022-11-26T17:46:19.392Z,12.35
2022-11-26T17:48:46.918Z,12.98
2022-11-26T17:51:14.578Z,12.20
2022-11-26T17:53:43.296Z,12.68
2022-11-26T17:56:30.672Z,12.80
2022-11-26T17:58:59.824Z,14.82
2022-11-26T18:01:27.152Z,14.98
2022-11-26T18:03:54.340Z,13.65
2022-11-26T18:06:29.140Z,13.02
2022-11-26T18:08:56.300Z,12.23
2022-11-26T18:11:40.257Z,12.52
2022-11-26T18:14:07.377Z,11.57
2022-11-26T18:16:35.520Z,13.32
2022-11-26T18:19:02.751Z,11.45
2022-11-26T18:21:29.847Z,12.73
2022-11-26T18:23:57.933Z,14.07
2022-11-26T18:26:28.125Z,13.32
2022-11-26T18:28:55.926Z,13.30
2022-11-26T18:31:23.690Z,12.40
2022-11-26T18:33:50.866Z,15.32
2022-11-26T18:36:18.283Z,16.30
2022-11-26T18:38:45.501Z,15.55
2022-11-26T18:41:12.976Z,15.52
2022-11-26T18:43:40.554Z,15.02
2022-11-26T18:46:11.496Z,14.15
2022-11-26T18:48:39.594Z,17.38
2022-11-26T18:51:06.867Z,16.60
2022-11-26T18:53:34.426Z,19.38
2022-11-26T18:56:01.924Z,18.27
2022-11-26T18:58:29.087Z,19.10
2022-11-26T19:00:58.548Z,16.05
2022-11-26T19:03:27.347Z,13.85
2022-11-26T19:05:54.909Z,14.15
2022-11-26T19:08:22.206Z,15.07
2022-11-26T19:10:49.336Z,14.57
2022-11-26T19:13:17.108Z,14.00
2022-11-26T19:15:45.336Z,13.93
2022-11-26T19:18:15.779Z,14.70
2022-11-26T19:20:49.984Z,15.30
2022-11-26T19:23:17.553Z,16.17
2022-11-26T19:25:45.637Z,15.95
2022-11-26T19:28:12.766Z,15.48
2022-11-26T19:30:39.930Z,16.27
2022-11-26T19:33:07.124Z,19.23
2022-11-26T19:35:34.315Z,19.42
2022-11-26T19:38:01.496Z,18.10
2022-11-26T19:40:28.645Z,19.42
2022-11-26T19:42:55.777Z,18.58
2022-11-26T19:45:23.881Z,17.55
2022-11-26T19:47:51.029Z,16.30
2022-11-26T19:50:18.196Z,16.25
2022-11-26T19:52:48.035Z,15.75
2022-11-26T19:55:15.400Z,17.48
2022-11-26T19:57:42.521Z,18.98
2022-11-26T20:00:09.949Z,17.23
2022-11-26T20:02:37.175Z,16.63
2022-11-26T20:05:04.547Z,16.13
2022-11-26T20:07:31.720Z,16.02
2022-11-26T20:09:58.921Z,17.58
2022-11-26T20:12:26.056Z,18.58
2022-11-26T20:14:53.231Z,18.58
2022-11-26T20:17:20.359Z,17.65
2022-11-26T20:19:47.553Z,16.17
2022-11-26T20:22:14.647Z,20.15
2022-11-26T20:24:41.779Z,20.42
2022-11-26T20:27:08.899Z,19.73
2022-11-26T20:29:36.138Z,23.88
2022-11-26T20:32:03.803Z,22.02
2022-11-26T20:34:33.559Z,22.45
2022-11-26T20:37:01.862Z,21.83
2022-11-26T20:39:29.803Z,21.88
2022-11-26T20:41:56.941Z,23.35
2022-11-26T20:44:26.666Z,24.85
2022-11-26T20:46:55.744Z,22.48
2022-11-26T20:49:23.328Z,22.88
2022-11-26T20:51:50.861Z,23.08
2022-11-26T20:54:17.973Z,21.50
2022-11-26T20:56:45.111Z,20.80
2022-11-26T20:59:12.267Z,21.75
2022-11-26T21:01:39.634Z,25.80
2022-11-26T21:04:06.926Z,25.33
2022-11-26T21:06:34.941Z,28.50
2022-11-26T21:09:03.397Z,18.40
2022-11-26T21:11:31.441Z,19.60
2022-11-26T21:13:59.695Z,17.23
2022-11-26T21:16:27.209Z,18.67
2022-11-26T21:18:54.965Z,17.50
2022-11-26T21:21:22.484Z,15.05
2022-11-26T21:23:49.763Z,13.48
2022-11-26T21:26:18.254Z,12.05
2022-11-26T21:28:45.484Z,12.70
2022-11-26T21:31:14.909Z,12.68
2022-11-26T21:33:42.074Z,11.30
2022-11-26T21:36:10.808Z,11.25
2022-11-26T21:38:38.086Z,10.57
2022-11-26T21:41:06.363Z,9.63
2022-11-26T21:43:33.515Z,11.18
2022-11-26T21:46:04.609Z,10.32
2022-11-26T21:48:32.301Z,14.70
2022-11-26T21:50:59.420Z,13.32
2022-11-26T21:53:26.564Z,11.25
2022-11-26T21:55:53.899Z,9.40
2022-11-26T21:58:21.026Z,8.25
2022-11-26T22:00:48.214Z,8.05
2022-11-26T22:03:15.349Z,7.32
2022-11-26T22:05:42.522Z,7.15
2022-11-26T22:08:09.738Z,7.55
2022-11-26T22:10:37.578Z,8.05
2022-11-26T22:13:04.703Z,7.55
2022-11-26T22:15:31.832Z,8.43
2022-11-26T22:17:58.948Z,7.72
2022-11-26T22:20:26.081Z,8.15
2022-11-26T22:22:53.195Z,7.75
2022-11-26T22:25:20.318Z,6.63
2022-11-26T22:27:47.439Z,6.95
2022-11-26T22:30:14.740Z,7.97
2022-11-26T22:32:41.868Z,7.55
2022-11-26T22:35:09.906Z,6.95
2022-11-26T22:37:37.074Z,7.93
2022-11-26T22:40:04.333Z,9.70
2022-11-26T22:42:31.469Z,7.35
2022-11-26T22:44:58.588Z,6.32
2022-11-26T22:47:26.178Z,6.20
2022-11-26T22:49:53.311Z,6.43
2022-11-26T22:52:20.431Z,6.43
2022-11-26T22:54:47.593Z,7.13
2022-11-26T22:57:14.687Z,7.43
2022-11-26T22:59:42.357Z,7.18
2022-11-26T23:02:09.575Z,7.75
2022-11-26T23:04:36.768Z,6.55
2022-11-26T23:07:04.305Z,9.05
2022-11-26T23:09:31.429Z,7.30
2022-11-26T23:11:58.549Z,6.43
2022-11-26T23:14:25.673Z,6.95
2022-11-26T23:16:52.801Z,7.82
2022-11-26T23:19:20.538Z,6.40
2022-11-26T23:21:47.756Z,6.10
2022-11-26T23:24:15.496Z,5.72
2022-11-26T23:26:42.759Z,6.78
2022-11-26T23:29:10.801Z,6.05
2022-11-26T23:31:39.832Z,6.28
2022-11-26T23:34:07.720Z,5.93
2022-11-26T23:36:35.448Z,6.18
2022-11-26T23:39:03.785Z,6.22
2022-11-26T23:41:31.149Z,6.30
2022-11-26T23:43:58.413Z,6.13
2022-11-26T23:46:30.892Z,6.45
2022-11-26T23:48:58.396Z,5.68
2022-11-26T23:51:26.894Z,5.45
2022-11-26T23:53:54.503Z,5.75
2022-11-26T23:56:22.838Z,7.05
2022-11-26T23:58:50.924Z,5.45
